FAHS/HDS METAR and TAF weather

Enter ICAO airport designator
Station Type Date Time Source
FAHS METAR 2019/05/25 08:00 UTC NOAA

FAHS 250800Z AUTO 13003KT //// // ////// 21/14 Q1028


Station Type Date Time Source
FAHS Decoded METAR 2019/05/25 08:00 UTC NOAA

Hoedspruit, South Africa (FAHS) 24-22S 031-02E 500M
May 25, 2019 - 04:00 AM EDT / 2019.05.25 0800 UTC
Wind: from the SE (130 degrees) at 3 MPH (3 KT):0
Temperature: 69 F (21 C)
Dew Point: 57 F (14 C)
Relative Humidity: 64%
Pressure (altimeter): 30.36 in. Hg (1028 hPa)
ob: FAHS 250800Z AUTO 13003KT //// // ////// 21/14 Q1028
cycle: 8

Station Type Date Time Source
FAHS TAF 2017/05/23 04:01 UTC NOAA

TAF FAHS 230300Z 2304/2315 VRB02KT CAVOK TX29/2312ZTN12/2304Z

Example: see airport list